Tiempo atmosférico en la estación meteorológica de Almazul, Soria (1000 m.)



Fecha
DESCASC
Temp. máxima en grados centígrados (hora)
DESCASC
Temp. mínima en grados centígrados (hora)
DESCASC
Temp. media en grados centígrados
DESCASC
Racha de viento máxima en m/sg (hora)
DESCASC
Velocidad máxima media en intervalos de 10 minutos(hora)
DESCASC
Precipitaciones diarias en mm
DESCASC
Precipitaciones de 00:00 a 06:00 en mm
DESCASC
Precipitaciones de 06:00 a 12:00 en mm
DESCASC
Precipitaciones de 12:00 a 18:00 en mm
DESCASC
Precipitaciones de 18:00 a 24:00 en mm
DESCASC
20-08-2019 21.7 (17:30) 12.5 (00:00) 17.1 12.5 (09:20) 10 (09:20) 18 16.8 1.2 0 0
26-07-2019 27.8 (15:00) 14.8 (00:00) 21.3 16.39 (16:10) 12.22 (16:40) 0.6 0 0.2 0.4 0
10-08-2019 27.8 (17:10) 13.2 (00:00) 20.5 7.22 (14:00) 5.28 (20:40) 0 0 0 0 0
24-08-2019 32.6 (16:50) 13.1 (00:00) 22.8 12.5 (20:10) 9.72 (20:20) 0 0 0 0 0
23-08-2019 31.8 (17:00) 10.6 (00:00) 21.2 9.44 (21:50) 7.22 (21:50) 0 0 0 0 0
22-08-2019 29.7 (18:20) 10.2 (00:00) 20 9.17 (17:50) 6.11 (02:50) 0 0 0 0 0
21-08-2019 27 (16:30) 12 (00:00) 19.5 9.44 (18:50) 7.22 (18:50) 0 0 0 0 0
19-08-2019 25.3 (17:00) 13.8 (00:00) 19.5 12.5 (17:30) 10 (17:30) 1.6 0 0 0 1.6
18-08-2019 32.4 (18:00) 14 (00:00) 23.2 14.72 (13:50) 9.17 (14:20) 0 0 0 0 0
17-08-2019 34.4 (16:40) 14.5 (00:00) 24.5 11.11 (17:30) 7.22 (17:30) 0 0 0 0 0
16-08-2019 33.7 (17:30) 12.5 (00:00) 23.1 9.72 (20:10) 7.5 (20:20) 0 0 0 0 0
15-08-2019 31 (17:10) 12.9 (00:00) 21.9 12.78 (19:30) 10.83 (19:30) 0 0 0 0 0
14-08-2019 30.2 (17:30) 8 (00:00) 19.1 11.67 (18:30) 7.22 (19:10) 0 0 0 0 0
13-08-2019 26.9 (18:20) 9.8 (00:00) 18.3 13.06 (00:10) 9.72 (00:10) 0 0 0 0 0
12-08-2019 21.3 (15:40) 8.7 (00:00) 15 17.78 (22:50) 14.17 (21:00) 0 0 0 0 0
11-08-2019 27.8 (16:40) 14 (00:00) 20.9 10.83 (22:40) 8.89 (20:30) 0 0 0 0 0
09-08-2019 31.3 (16:00) 16.2 (00:00) 23.8 15.83 (20:40) 10.83 (20:40) 0.4 0 0 0 0.4
08-08-2019 31.6 (17:20) 14.6 (00:00) 23.1 12.22 (13:00) 8.33 (19:40) 0 0 0 0 0
07-08-2019 28.6 (13:30) 16 (00:00) 22.3 14.17 (19:00) 10.83 (19:10) 0.2 0 0 0.2 0
06-08-2019 34 (17:10) 15.8 (00:00) 24.9 11.11 (17:20) 7.5 (17:20) 0 0 0 0 0
05-08-2019 34.1 (18:20) 15.1 (00:00) 24.6 15 (18:20) 7.78 (17:10) 0 0 0 0 0
04-08-2019 33.4 (17:50) 15.1 (00:00) 24.3 12.78 (14:40) 8.06 (16:30) 0 0 0 0 0
03-08-2019 34.2 (16:30) 14.8 (00:00) 24.5 15.56 (15:40) 8.06 (19:00) 0 0 0 0 0
02-08-2019 32.1 (17:30) 13.7 (00:00) 22.9 11.11 (18:40) 7.5 (18:50) 0 0 0 0 0
01-08-2019 30.2 (17:10) 16.7 (00:00) 23.5 18.33 (20:00) 8.61 (19:50) 0 0 0 0 0
29-07-2019 31.1 (18:00) 10.5 (00:00) 20.8 17.22 (16:00) 6.94 (16:40) 0 0 0 0 0
31-07-2019 28.6 (17:00) 9.8 (00:00) 19.2 11.39 (18:00) 8.61 (01:30) 0 0 0 0 0
30-07-2019 25.8 (17:00) 11.2 (00:00) 18.5 13.61 (22:00) 10.83 (19:30) 0 0 0 0 0
28-07-2019 26.7 (18:20) 7.9 (00:00) 17.3 9.17 (19:20) 6.39 (20:40) 0 0 0 0 0
27-07-2019 21.1 (16:30) 12.2 (00:00) 16.7 16.67 (17:00) 12.5 (17:10) 0 0 0 0 0

Gráficas

Temp. máximas Temp. mínimas Temp. medias Precipitaciones Rachas de viento máximas Velocidades máximas media en intervalos de 10 minutos

Datos horarios

Fecha y hora oficial Temperatura (ºC) Velocidad del viento (km/h) Dirección del viento Racha (km/h) Dirección de racha Precipitación (mm) Presión (hPa) Tendencia (hPa) Humedad (%)
2019-08-24 23:00:00 21.1 4 Sudeste 19 Sudeste 0 -- -- 36
2019-08-24 22:00:00 22.7 15 Sudeste 28 Sudeste 0 -- -- 32
2019-08-24 21:00:00 24.8 24 Sudeste 45 Sudeste 0 -- -- 32
2019-08-24 20:00:00 27.2 31 Sudeste 42 Sudeste 0 -- -- 30
2019-08-24 19:00:00 29.1 32 Sudeste 41 Sudeste 0 -- -- 28
2019-08-24 18:00:00 31.4 8 Sur 32 Sudoeste 0 -- -- 21
2019-08-24 17:00:00 32.4 8 Sudoeste 29 Sudoeste 0 -- -- 22
2019-08-24 16:00:00 31.1 13 Oeste 24 Noroeste 0 -- -- 25
2019-08-24 15:00:00 29.9 8 Sudeste 30 Sur 0 -- -- 26
2019-08-24 14:00:00 28.1 11 Sudeste 23 Sudeste 0 -- -- 30
2019-08-24 13:00:00 27 9 Sur 19 Sur 0 -- -- 33
2019-08-24 12:00:00 26 8 Sur 16 Sur 0 -- -- 36
2019-08-24 11:00:00 24.2 11 Sudoeste 18 Sur 0 -- -- 38
2019-08-24 10:00:00 22.6 7 Sur 9 Sur 0 -- -- 44
2019-08-24 09:00:00 19.5 0 Calma 5 Norte 0 -- -- 58
2019-08-24 08:00:00 13.9 4 Norte 6 Norte 0 -- -- 69
2019-08-24 07:00:00 14.4 0 Calma 2 Sudeste 0 -- -- 65
2019-08-24 06:00:00 14.3 0 Calma 4 Norte 0 -- -- 66
2019-08-24 05:00:00 14.2 5 Norte 12 Norte 0 -- -- 67
2019-08-24 04:00:00 16.6 4 Sudeste 14 Sudeste 0 -- -- 57
2019-08-24 03:00:00 17.6 8 Sudeste 12 Sudeste 0 -- -- 53
2019-08-24 02:00:00 17.9 8 Sudeste 10 Sudeste 0 -- -- 49
2019-08-24 01:00:00 20.5 4 Sur 19 Sur 0 -- -- 42
2019-08-24 00:00:00 19.6 3 Este 16 Sudeste 0 -- -- 45
2019-08-23 23:00:00 20.8 9 Sudeste 30 Sudeste 0 -- -- 44
2019-08-23 22:00:00 22.7 25 Sudeste 34 Sudeste 0 -- -- 40
2019-08-23 21:00:00 24.2 23 Sudeste 33 Sudeste 0 -- -- 35
2019-08-23 20:00:00 28.2 18 Sur 28 Sur 0 -- -- 25
2019-08-23 19:00:00 30.5 13 Sur 23 Sur 0 -- -- 23
2019-08-23 18:00:00 29.9 9 Este 16 Nordeste 0 -- -- 25
2019-08-23 17:00:00 31.8 5 Sur 22 Noroeste 0 -- -- 23
2019-08-23 16:00:00 29.3 12 Sur 28 Sur 0 -- -- 27
2019-08-23 15:00:00 29.2 8 Sudeste 22 Sur 0 -- -- 28
2019-08-23 14:00:00 27 9 Sudeste 21 Sudeste 0 -- -- 35
2019-08-23 13:00:00 25.8 11 Sur 21 Sudoeste 0 -- -- 40
2019-08-23 12:00:00 24.6 8 Sudoeste 21 Sudoeste 0 -- -- 43
2019-08-23 11:00:00 23.4 10 Sur 15 Sudoeste 0 -- -- 46
2019-08-23 10:00:00 21.1 3 Norte 6 Oeste 0 -- -- 50
2019-08-23 09:00:00 15.9 3 Este 13 Nordeste 0 -- -- 65
2019-08-23 08:00:00 12.1 7 Nordeste 12 Nordeste 0 -- -- 70
2019-08-23 07:00:00 11.1 0 Calma 13 Nordeste 0 -- -- 74
2019-08-23 06:00:00 11.7 8 Nordeste 13 Norte 0 -- -- 71
2019-08-23 05:00:00 12.2 4 Nordeste 14 Nordeste 0 -- -- 69
2019-08-23 04:00:00 12.7 10 Nordeste 14 Nordeste 0 -- -- 70
2019-08-23 03:00:00 14.1 0 Calma 7 Este 0 -- -- 64
2019-08-23 02:00:00 13.4 0 Calma 8 Sudeste 0 -- -- 69
2019-08-23 01:00:00 14.5 5 Nordeste 13 Nordeste 0 -- -- 66
2019-08-23 00:00:00 15.6 12 Nordeste 14 Nordeste 0 -- -- 63
2019-08-22 23:00:00 18.7 12 Sudeste 15 Sudeste 0 -- -- 53
2019-08-22 22:00:00 19 9 Sudeste 14 Sudeste 0 -- -- 51
2019-08-22 21:00:00 21.7 12 Sudeste 20 Sudeste 0 -- -- 42
2019-08-22 20:00:00 24.2 15 Sudeste 23 Sudeste 0 -- -- 38
2019-08-22 19:00:00 26.5 11 Este 22 Sur 0 -- -- 33
2019-08-22 18:00:00 27.7 11 Este 33 Nordeste 0 -- -- 30
2019-08-22 17:00:00 27.8 10 Nordeste 19 Norte 0 -- -- 28
2019-08-22 16:00:00 28.2 8 Este 20 Nordeste 0 -- -- 26
2019-08-22 15:00:00 26.3 7 Sudeste 19 Sur 0 -- -- 27
2019-08-22 14:00:00 24.7 6 Nordeste 19 Nordeste 0 -- -- 31
2019-08-22 13:00:00 23.6 4 Nordeste 18 Nordeste 0 -- -- 36
2019-08-22 12:00:00 22.5 5 Nordeste 16 Norte 0 -- -- 33
2019-08-22 11:00:00 20.4 6 Norte 13 Nordeste 0 -- -- 39
2019-08-22 10:00:00 17.8 9 Nordeste 16 Nordeste 0 -- -- 49
2019-08-22 09:00:00 14.7 10 Nordeste 14 Nordeste 0 -- -- 65
2019-08-22 08:00:00 11.2 5 Nordeste 8 Nordeste 0 -- -- 82
2019-08-22 07:00:00 10.5 5 Norte 14 Nordeste 0 -- -- 84
2019-08-22 06:00:00 11.4 8 Norte 17 Nordeste 0 -- -- 84
2019-08-22 05:00:00 12.5 13 Nordeste 23 Nordeste 0 -- -- 79
2019-08-22 04:00:00 13.3 20 Norte 27 Nordeste 0 -- -- 77
2019-08-22 03:00:00 13.8 22 Nordeste 27 Nordeste 0 -- -- 78
2019-08-22 02:00:00 14.2 20 Nordeste 24 Nordeste 0 -- -- 84
2019-08-22 01:00:00 15.2 17 Nordeste 22 Nordeste 0 -- -- 81
2019-08-22 00:00:00 16.3 16 Nordeste 24 Nordeste 0 -- -- 76
2019-08-21 23:00:00 16.7 12 Nordeste 17 Nordeste 0 -- -- 80
2019-08-21 22:00:00 18.7 5 Sudeste 8 Sur 0 -- -- 72
2019-08-21 21:00:00 19.8 8 Sur 24 Sudeste 0 -- -- 68
2019-08-21 20:00:00 20.4 21 Sur 31 Sudeste 0 -- -- 66
2019-08-21 19:00:00 22.3 24 Sudeste 34 Sudeste 0 -- -- 60
2019-08-21 18:00:00 25.4 21 Este 30 Este 0 -- -- 49
2019-08-21 17:00:00 24.9 7 Este 16 Nordeste 0 -- -- 50
2019-08-21 16:00:00 24.4 4 Este 19 Sudoeste 0 -- -- 53
2019-08-21 15:00:00 24.2 14 Sudoeste 22 Sur 0 -- -- 55
2019-08-21 14:00:00 23.8 13 Sudoeste 22 Sudoeste 0 -- -- 58
2019-08-21 13:00:00 22.9 4 Sur 11 Sur 0 -- -- 57
2019-08-21 12:00:00 19.6 4 Sur 13 Sudoeste 0 -- -- 64
2019-08-21 11:00:00 17.2 4 Sudeste 8 Sudeste 0 -- -- 70
2019-08-21 10:00:00 16.2 7 Sur 10 Sur 0 -- -- 75
2019-08-21 09:00:00 15.7 3 Sur 5 Norte 0 -- -- 75
2019-08-21 08:00:00 14.6 3 Sur 9 Sudeste 0 -- -- 84
2019-08-21 07:00:00 14.8 4 Sudeste 10 Sur 0 -- -- 81
2019-08-21 06:00:00 14.9 8 Sur 10 Sur 0 -- -- 81
2019-08-21 05:00:00 14.9 0 Calma 6 Sudoeste 0 -- -- 79
2019-08-21 04:00:00 15.3 8 Sudeste 14 Sudeste 0 -- -- 77
2019-08-21 03:00:00 13.8 8 Este 12 Nordeste 0 -- -- 83
2019-08-21 02:00:00 13.2 9 Nordeste 18 Nordeste 0 -- -- 83
2019-08-21 01:00:00 12.2 5 Norte 10 Norte 0 -- -- 88
2019-08-21 00:00:00 12.7 3 Noroeste 25 Nordeste 0 -- -- 83
2019-08-20 23:00:00 13.7 14 Nordeste 24 Este 0 -- -- 80
2019-08-20 22:00:00 14.7 21 Nordeste 35 Nordeste 0 -- -- 76
2019-08-20 21:00:00 16.3 27 Nordeste 42 Nordeste 0 -- -- 68
2019-08-20 20:00:00 19.2 31 Nordeste 37 Nordeste 0 -- -- 58
2019-08-20 19:00:00 20.3 21 Este 39 Nordeste 0 -- -- 54
2019-08-20 18:00:00 21.5 19 Nordeste 36 Nordeste 0 -- -- 53
2019-08-20 17:00:00 21.6 18 Nordeste 32 Nordeste 0 -- -- 54
2019-08-20 16:00:00 21.2 21 Nordeste 33 Nordeste 0 -- -- 56
2019-08-20 15:00:00 20.3 13 Nordeste 30 Nordeste 0 -- -- 58
2019-08-20 14:00:00 18.5 19 Este 35 Este 0 -- -- 69
2019-08-20 13:00:00 16.5 29 Nordeste 40 Nordeste 0 -- -- 75
2019-08-20 12:00:00 15.3 31 Nordeste 40 Nordeste 0 -- -- 82
2019-08-20 11:00:00 13.8 27 Nordeste 39 Nordeste 0 -- -- 88
2019-08-20 10:00:00 12.9 28 Nordeste 45 Nordeste 0 -- -- 92
2019-08-20 09:00:00 12.7 28 Nordeste 40 Nordeste 0 -- -- 93
2019-08-20 08:00:00 12.8 18 Nordeste 28 Nordeste 0.4 -- -- 93
2019-08-20 07:00:00 13.3 11 Este 18 Nordeste 0.8 -- -- 94
2019-08-20 06:00:00 14.5 10 Este 15 Este 0 -- -- 94
2019-08-20 05:00:00 13.9 11 Sudeste 21 Este 1.6 -- -- 95
2019-08-20 04:00:00 13.5 19 Nordeste 26 Nordeste 1.4 -- -- 96
2019-08-20 03:00:00 13.6 14 Nordeste 22 Nordeste 3.6 -- -- 96
2019-08-20 02:00:00 13.4 18 Nordeste 27 Nordeste 7.6 -- -- 96
2019-08-20 01:00:00 14.8 10 Nordeste 19 Este 2.6 -- -- 95
2019-08-20 00:00:00 14.7 7 Nordeste 21 Nordeste 1.4 -- -- 94
2019-08-19 23:00:00 13.9 19 Nordeste 33 Nordeste 0.2 -- -- 89
2019-08-19 22:00:00 16 23 Nordeste 29 Nordeste 0 -- -- 79
2019-08-19 21:00:00 16.4 18 Nordeste 33 Nordeste 0 -- -- 73
2019-08-19 20:00:00 18 25 Nordeste 32 Nordeste 0 -- -- 60
2019-08-19 19:00:00 20.1 21 Nordeste 33 Nordeste 0 -- -- 55
2019-08-19 18:00:00 20.1 29 Nordeste 45 Nordeste 0 -- -- 54
2019-08-19 17:00:00 25.3 8 Sudeste 33 Nordeste 0 -- -- 43
2019-08-19 16:00:00 22.4 28 Nordeste 34 Nordeste 0 -- -- 50
2019-08-19 15:00:00 24 6 Nordeste 25 Este 0 -- -- 48
2019-08-19 14:00:00 23.3 14 Sudeste 21 Este 0 -- -- 52
2019-08-19 13:00:00 24.1 11 Sur 21 Sur 0 -- -- 50
2019-08-19 12:00:00 21.4 7 Norte 16 Sur 0 -- -- 59
2019-08-19 11:00:00 19.8 8 Sudeste 16 Sudeste 0 -- -- 62
2019-08-19 10:00:00 17.5 6 Sudeste 16 Nordeste 0 -- -- 68
2019-08-19 09:00:00 15.4 13 Nordeste 23 Nordeste 0 -- -- 75
2019-08-19 08:00:00 14 22 Nordeste 32 Nordeste 0 -- -- 80
2019-08-19 07:00:00 14 27 Nordeste 37 Nordeste 0 -- -- 82
2019-08-19 06:00:00 14.4 21 Nordeste 26 Nordeste 0 -- -- 83
2019-08-19 05:00:00 15.5 16 Nordeste 26 Nordeste 0 -- -- 80
2019-08-19 04:00:00 15.5 13 Nordeste 25 Nordeste 0 -- -- 80
2019-08-19 03:00:00 15.9 19 Nordeste 27 Nordeste 0 -- -- 80
2019-08-19 02:00:00 16.6 19 Nordeste 30 Nordeste 0 -- -- 77
2019-08-19 01:00:00 17.3 19 Nordeste 34 Nordeste 0 -- -- 75
2019-08-19 00:00:00 19 24 Nordeste 39 Nordeste 0 -- -- 70
2019-08-18 23:00:00 19.8 26 Nordeste 33 Nordeste 0 -- -- 68
2019-08-18 22:00:00 20.8 23 Nordeste 32 Nordeste 0 -- -- 66
2019-08-18 21:00:00 24 23 Nordeste 40 Noroeste 0 -- -- 55
2019-08-18 20:00:00 29.7 28 Noroeste 39 Noroeste 0 -- -- 22
2019-08-18 19:00:00 31.8 10 Oeste 29 Noroeste 0 -- -- 23
2019-08-18 18:00:00 32.4 10 Noroeste 31 Noroeste 0 -- -- 21
2019-08-18 17:00:00 30.8 20 Noroeste 34 Noroeste 0 -- -- 21
2019-08-18 16:00:00 31.3 25 Oeste 49 Sudoeste 0 -- -- 19
2019-08-18 15:00:00 31.1 29 Oeste 46 Sudoeste 0 -- -- 15
2019-08-18 14:00:00 30.4 21 Oeste 53 Sudoeste 0 -- -- 21
2019-08-18 13:00:00 29.5 25 Oeste 37 Oeste 0 -- -- 25
2019-08-18 12:00:00 27.9 10 Noroeste 18 Noroeste 0 -- -- 32
2019-08-18 11:00:00 25.5 14 Oeste 28 Noroeste 0 -- -- 36
2019-08-18 10:00:00 22.6 18 Noroeste 35 Noroeste 0 -- -- 39
2019-08-18 09:00:00 20.6 22 Noroeste 33 Noroeste 0 -- -- 39
2019-08-18 08:00:00 15.9 3 Norte 8 Sudeste 0 -- -- 51
2019-08-18 07:00:00 14.8 0 Calma 6 Norte 0 -- -- 58
2019-08-18 06:00:00 14.2 0 Calma 6 Norte 0 -- -- 59
2019-08-18 05:00:00 16.4 5 Norte 7 Sudeste 0 -- -- 53
2019-08-18 04:00:00 17.6 0 Calma 2 Sur 0 -- -- 52
2019-08-18 03:00:00 18.1 0 Calma 9 Norte 0 -- -- 49
2019-08-18 02:00:00 19.6 5 Nordeste 12 Nordeste 0 -- -- 45
2019-08-18 01:00:00 21.4 10 Nordeste 19 Noroeste 0 -- -- 36
2019-08-18 00:00:00 25 13 Noroeste 19 Noroeste 0 -- -- 26
2019-08-17 23:00:00 26.2 14 Oeste 22 Oeste 0 -- -- 23
2019-08-17 22:00:00 26.6 12 Sudoeste 21 Sudoeste 0 -- -- 24
2019-08-17 21:00:00 29.8 19 Sudoeste 36 Sudoeste 0 -- -- 21
2019-08-17 20:00:00 32.5 22 Sudoeste 38 Sudoeste 0 -- -- 20
2019-08-17 19:00:00 34.1 16 Sudoeste 31 Oeste 0 -- -- 18
2019-08-17 18:00:00 33.9 20 Oeste 40 Sudoeste 0 -- -- 20
2019-08-17 17:00:00 34.4 19 Oeste 37 Oeste 0 -- -- 18
2019-08-17 16:00:00 33.8 20 Oeste 38 Sudoeste 0 -- -- 20
2019-08-17 15:00:00 32.2 13 Noroeste 32 Oeste 0 -- -- 22
2019-08-17 14:00:00 31.5 14 Oeste 32 Oeste 0 -- -- 25
2019-08-17 13:00:00 30.6 10 Oeste 18 Sudoeste 0 -- -- 27
2019-08-17 12:00:00 29.1 7 Noroeste 17 Norte 0 -- -- 29
2019-08-17 11:00:00 26.2 11 Noroeste 17 Oeste 0 -- -- 33
2019-08-17 10:00:00 26.8 4 Sur 8 Sudoeste 0 -- -- 40
2019-08-17 09:00:00 21.2 5 Nordeste 14 Norte 0 -- -- 50
2019-08-17 08:00:00 16.6 5 Nordeste 12 Norte 0 -- -- 62
2019-08-17 07:00:00 16.4 3 Nordeste 13 Nordeste 0 -- -- 61
2019-08-17 06:00:00 16.7 9 Norte 15 Norte 0 -- -- 61
2019-08-17 05:00:00 17.3 2 Sudeste 13 Nordeste 0 -- -- 58
2019-08-17 04:00:00 18.1 7 Norte 18 Nordeste 0 -- -- 55
2019-08-17 03:00:00 18.7 9 Norte 13 Norte 0 -- -- 52
2019-08-17 02:00:00 22.5 8 Sudeste 22 Sudeste 0 -- -- 43
2019-08-17 01:00:00 23.1 9 Sudeste 17 Sudeste 0 -- -- 42
2019-08-17 00:00:00 22.3 0 Calma 23 Sudeste 0 -- -- 43
2019-08-16 23:00:00 23.2 18 Sudeste 26 Sudeste 0 -- -- 41
2019-08-16 22:00:00 24.2 17 Este 27 Sudeste 0 -- -- 40
2019-08-16 21:00:00 26.4 17 Sudeste 35 Este 0 -- -- 35
2019-08-16 20:00:00 30.6 17 Sudeste 35 Sudeste 0 -- -- 31
2019-08-16 19:00:00 32 7 Noroeste 27 Noroeste 0 -- -- 26
2019-08-16 18:00:00 32.6 12 Noroeste 26 Noroeste 0 -- -- 26
2019-08-16 17:00:00 32.2 13 Noroeste 27 Sudoeste 0 -- -- 25
2019-08-16 16:00:00 31.7 13 Noroeste 28 Oeste 0 -- -- 29
2019-08-16 15:00:00 30.5 17 Noroeste 30 Sudoeste 0 -- -- 31
2019-08-16 14:00:00 29.7 12 Sudoeste 27 Sudoeste 0 -- -- 32
2019-08-16 13:00:00 27.6 13 Sur 23 Sur 0 -- -- 41
2019-08-16 12:00:00 26.7 11 Sur 19 Sur 0 -- -- 41
2019-08-16 11:00:00 25.5 10 Sudoeste 17 Sur 0 -- -- 39
2019-08-16 10:00:00 23.5 3 Nordeste 12 Norte 0 -- -- 42
2019-08-16 09:00:00 17.7 9 Norte 11 Norte 0 -- -- 60
2019-08-16 08:00:00 14.2 2 Nordeste 9 Nordeste 0 -- -- 69
2019-08-16 07:00:00 13.8 5 Nordeste 14 Nordeste 0 -- -- 71
2019-08-16 06:00:00 13 4 Nordeste 6 Este 0 -- -- 70
2019-08-16 05:00:00 14.7 4 Nordeste 6 Norte 0 -- -- 66
2019-08-16 04:00:00 14.9 0 Calma 8 Este 0 -- -- 64
2019-08-16 03:00:00 15.3 0 Calma 5 Este 0 -- -- 64
2019-08-16 02:00:00 15.5 7 Sur 13 Sudeste 0 -- -- 64
2019-08-16 01:00:00 16.8 0 Calma 10 Sudeste 0 -- -- 62
2019-08-16 00:00:00 17.5 6 Sudeste 19 Nordeste 0 -- -- 60
2019-08-15 23:00:00 18.1 16 Nordeste 34 Nordeste 0 -- -- 58
2019-08-15 22:00:00 18.7 31 Nordeste 43 Nordeste 0 -- -- 57
2019-08-15 21:00:00 20 34 Nordeste 46 Nordeste 0 -- -- 54
2019-08-15 20:00:00 22.5 38 Nordeste 46 Nordeste 0 -- -- 46
2019-08-15 19:00:00 25.3 37 Nordeste 46 Nordeste 0 -- -- 42
2019-08-15 18:00:00 28.2 30 Nordeste 41 Nordeste 0 -- -- 38
2019-08-15 17:00:00 30.7 9 Sudoeste 22 Oeste 0 -- -- 30
2019-08-15 16:00:00 28.6 13 Nordeste 23 Norte 0 -- -- 36
2019-08-15 15:00:00 26.9 12 Norte 24 Norte 0 -- -- 40
2019-08-15 14:00:00 26 8 Este 19 Este 0 -- -- 43
2019-08-15 13:00:00 26.1 10 Sudoeste 18 Norte 0 -- -- 43
2019-08-15 12:00:00 23.9 5 Nordeste 15 Sudoeste 0 -- -- 49
2019-08-15 11:00:00 23.4 8 Sur 14 Nordeste 0 -- -- 51
2019-08-15 10:00:00 20.4 10 Nordeste 15 Nordeste 0 -- -- 63
2019-08-15 09:00:00 18.5 3 Norte 7 Norte 0 -- -- 70
2019-08-15 08:00:00 15 0 Calma 14 Nordeste 0 -- -- 85
2019-08-15 07:00:00 12.9 11 Norte 14 Norte 0 -- -- 88
2019-08-15 06:00:00 13 7 Nordeste 10 Nordeste 0 -- -- 84
2019-08-15 05:00:00 13.5 7 Norte 14 Nordeste 0 -- -- 83
2019-08-15 04:00:00 13.6 9 Nordeste 17 Nordeste 0 -- -- 81
2019-08-15 03:00:00 14.3 10 Nordeste 16 Nordeste 0 -- -- 78
2019-08-15 02:00:00 14.8 8 Nordeste 12 Nordeste 0 -- -- 74
2019-08-15 01:00:00 16.7 4 Norte 14 Nordeste 0 -- -- 64
2019-08-15 00:00:00 17.4 10 Nordeste 29 Nordeste 0 -- -- 61
2019-08-14 23:00:00 19 18 Nordeste 28 Nordeste 0 -- -- 56
2019-08-14 22:00:00 20.7 19 Nordeste 33 Nordeste 0 -- -- 50
2019-08-14 21:00:00 23.4 20 Nordeste 33 Nordeste 0 -- -- 41
2019-08-14 20:00:00 27.7 20 Nordeste 36 Nordeste 0 -- -- 28
2019-08-14 19:00:00 29.1 18 Nordeste 42 Norte 0 -- -- 26
2019-08-14 18:00:00 29.6 16 Noroeste 35 Noroeste 0 -- -- 23
2019-08-14 17:00:00 30.1 10 Noroeste 38 Noroeste 0 -- -- 22
2019-08-14 16:00:00 29.2 12 Noroeste 35 Noroeste 0 -- -- 24
2019-08-14 15:00:00 27.8 11 Noroeste 26 Noroeste 0 -- -- 26
2019-08-14 14:00:00 25.9 11 Norte 24 Norte 0 -- -- 28
2019-08-14 13:00:00 25.1 10 Noroeste 21 Noroeste 0 -- -- 29
2019-08-14 12:00:00 23.2 12 Norte 21 Norte 0 -- -- 31
2019-08-14 11:00:00 21.6 6 Norte 15 Nordeste 0 -- -- 32
2019-08-14 10:00:00 17.5 11 Norte 15 Norte 0 -- -- 49
2019-08-14 09:00:00 12.9 10 Norte 16 Nordeste 0 -- -- 64
2019-08-14 08:00:00 9.9 4 Norte 13 Nordeste 0 -- -- 73
2019-08-14 07:00:00 8.2 3 Nordeste 14 Nordeste 0 -- -- 76
2019-08-14 06:00:00 9.3 7 Norte 10 Nordeste 0 -- -- 73
2019-08-14 05:00:00 10 7 Nordeste 11 Norte 0 -- -- 71
2019-08-14 04:00:00 10 2 Este 9 Sudeste 0 -- -- 74
2019-08-14 03:00:00 12 2 Nordeste 6 Norte 0 -- -- 66
2019-08-14 02:00:00 12.3 6 Norte 7 Norte 0 -- -- 66
2019-08-14 01:00:00 12.2 4 Norte 5 Norte 0 -- -- 67
2019-08-14 00:00:00 13 3 Norte 27 Nordeste 0 -- -- 65
2019-08-13 23:00:00 15.1 22 Nordeste 35 Nordeste 0 -- -- 59
2019-08-13 22:00:00 16.3 28 Nordeste 37 Nordeste 0 -- -- 54
2019-08-13 21:00:00 18.4 28 Nordeste 41 Nordeste 0 -- -- 46
2019-08-13 20:00:00 21.3 31 Nordeste 38 Nordeste 0 -- -- 37
2019-08-13 19:00:00 23.8 25 Nordeste 41 Nordeste 0 -- -- 30
2019-08-13 18:00:00 25.2 13 Noroeste 30 Oeste 0 -- -- 21
2019-08-13 17:00:00 24.3 13 Noroeste 28 Noroeste 0 -- -- 21
2019-08-13 16:00:00 23.8 9 Noroeste 32 Oeste 0 -- -- 23
2019-08-13 15:00:00 22.5 12 Noroeste 25 Oeste 0 -- -- 24
2019-08-13 14:00:00 20.8 12 Nordeste 21 Noroeste 0 -- -- 33
2019-08-13 13:00:00 18.8 10 Nordeste 22 Este 0 -- -- 37
2019-08-13 12:00:00 17.9 8 Nordeste 19 Nordeste 0 -- -- 39
2019-08-13 11:00:00 16.9 9 Nordeste 17 Norte 0 -- -- 45
2019-08-13 10:00:00 14.9 10 Este 19 Este 0 -- -- 56
2019-08-13 09:00:00 13.1 12 Este 17 Este 0 -- -- 60
2019-08-13 08:00:00 10.6 13 Nordeste 23 Nordeste 0 -- -- 64
2019-08-13 07:00:00 10.5 14 Nordeste 24 Nordeste 0 -- -- 64
2019-08-13 06:00:00 10.1 19 Nordeste 30 Nordeste 0 -- -- 66
2019-08-13 05:00:00 10.8 19 Nordeste 28 Nordeste 0 -- -- 65
2019-08-13 04:00:00 11.3 15 Nordeste 28 Nordeste 0 -- -- 60
2019-08-13 03:00:00 11.5 22 Nordeste 30 Nordeste 0 -- -- 64
2019-08-13 02:00:00 10.9 12 Nordeste 35 Nordeste 0 -- -- 73
2019-08-13 01:00:00 11.5 30 Nordeste 47 Nordeste 0 -- -- 70
2019-08-13 00:00:00 11.9 39 Nordeste 63 Nordeste 0 -- -- 69
2019-08-12 23:00:00 11.9 47 Nordeste 64 Nordeste 0 -- -- 72
2019-08-12 22:00:00 13.1 46 Nordeste 64 Nordeste 0 -- -- 67
2019-08-12 21:00:00 14.9 51 Nordeste 61 Nordeste 0 -- -- 56
2019-08-12 20:00:00 17.8 32 Este 46 Este 0 -- -- 42
2019-08-12 19:00:00 19.9 28 Este 41 Este 0 -- -- 37
2019-08-12 18:00:00 20.5 28 Nordeste 46 Nordeste 0 -- -- 35
2019-08-12 17:00:00 21 19 Nordeste 40 Este 0 -- -- 35
2019-08-12 16:00:00 21.1 21 Nordeste 43 Nordeste 0 -- -- 36
2019-08-12 15:00:00 19.9 21 Nordeste 43 Nordeste 0 -- -- 38
2019-08-12 14:00:00 19.5 24 Nordeste 37 Nordeste 0 -- -- 39
2019-08-12 13:00:00 18.7 17 Nordeste 42 Nordeste 0 -- -- 41
2019-08-12 12:00:00 17.8 18 Nordeste 34 Nordeste 0 -- -- 47
2019-08-12 11:00:00 16.5 20 Norte 35 Nordeste 0 -- -- 50
2019-08-12 10:00:00 14.5 24 Norte 37 Norte 0 -- -- 59
2019-08-12 09:00:00 13 21 Norte 31 Norte 0 -- -- 70
2019-08-12 08:00:00 9.9 9 Norte 13 Norte 0 -- -- 87
2019-08-12 07:00:00 9.1 7 Norte 15 Norte 0 -- -- 89
2019-08-12 06:00:00 10.6 13 Norte 24 Norte 0 -- -- 86
2019-08-12 05:00:00 11.4 15 Norte 27 Nordeste 0 -- -- 83
2019-08-12 04:00:00 12 19 Nordeste 31 Nordeste 0 -- -- 83
2019-08-12 03:00:00 12.4 17 Nordeste 34 Nordeste 0 -- -- 84
2019-08-12 02:00:00 13 26 Nordeste 36 Nordeste 0 -- -- 82
2019-08-12 01:00:00 13.4 26 Nordeste 40 Nordeste 0 -- -- 80
2019-08-12 00:00:00 14 28 Nordeste 38 Nordeste 0 -- -- 77
2019-08-11 23:00:00 15.3 26 Nordeste 39 Nordeste 0 -- -- 72
2019-08-11 22:00:00 16.4 22 Nordeste 33 Nordeste 0 -- -- 68
2019-08-11 21:00:00 18.2 25 Nordeste 39 Este 0 -- -- 61
2019-08-11 20:00:00 20.6 26 Nordeste 33 Nordeste 0 -- -- 51
2019-08-11 19:00:00 22 22 Nordeste 35 Nordeste 0 -- -- 47
2019-08-11 18:00:00 24 28 Nordeste 35 Nordeste 0 -- -- 42
2019-08-11 17:00:00 25.9 21 Norte 31 Noroeste 0 -- -- 32
2019-08-11 16:00:00 25.6 9 Norte 33 Noroeste 0 -- -- 31
2019-08-11 15:00:00 25.9 16 Norte 36 Noroeste 0 -- -- 29
2019-08-11 14:00:00 25.4 15 Noroeste 34 Oeste 0 -- -- 31
2019-08-11 13:00:00 23.3 9 Norte 24 Norte 0 -- -- 43
2019-08-11 12:00:00 23.3 7 Oeste 18 Oeste 0 -- -- 45
2019-08-11 11:00:00 23 3 Este 12 Norte 0 -- -- 52
2019-08-11 10:00:00 21.2 5 Oeste 10 Sudeste 0 -- -- 60
2019-08-11 09:00:00 16.6 8 Este 21 Este 0 -- -- 82
2019-08-11 08:00:00 16.7 10 Nordeste 19 Nordeste 0 -- -- 77
2019-08-11 07:00:00 15.2 10 Norte 20 Norte 0 -- -- 85
2019-08-11 06:00:00 14.8 10 Norte 18 Norte 0 -- -- 80
2019-08-11 05:00:00 16.6 3 Sudeste 15 Sudeste 0 -- -- 70
2019-08-11 04:00:00 16.4 4 Sudeste 14 Sudeste 0 -- -- 72
2019-08-11 03:00:00 16.2 8 Nordeste 21 Nordeste 0 -- -- 77
2019-08-11 02:00:00 16.1 15 Nordeste 19 Nordeste 0 -- -- 77
2019-08-11 01:00:00 17.5 7 Este 17 Nordeste 0 -- -- 69
2019-08-11 00:00:00 17.1 8 Nordeste 16 Este 0 -- -- 72
2019-08-10 23:00:00 19.1 17 Este 24 Este 0 -- -- 65
2019-08-10 22:00:00 20.8 14 Este 22 Este 0 -- -- 56
2019-08-10 21:00:00 22.3 15 Este 24 Este 0 -- -- 54
2019-08-10 20:00:00 24.8 14 Sudeste 21 Sudeste 0 -- -- 44
2019-08-10 19:00:00 26.5 9 Noroeste 15 Noroeste 0 -- -- 36
2019-08-10 18:00:00 26.9 6 Noroeste 13 Oeste 0 -- -- 37
2019-08-10 17:00:00 27.4 6 Norte 22 Norte 0 -- -- 37
2019-08-10 16:00:00 27.2 9 Este 25 Norte 0 -- -- 39
2019-08-10 15:00:00 24.4 13 Noroeste 20 Noroeste 0 -- -- 45
2019-08-10 14:00:00 24.6 12 Noroeste 26 Noroeste 0 -- -- 47
2019-08-10 13:00:00 22.8 4 Norte 17 Norte 0 -- -- 52
2019-08-10 12:00:00 21.1 10 Noroeste 23 Norte 0 -- -- 55
2019-08-10 11:00:00 21.6 4 Norte 10 Sudoeste 0 -- -- 57
2019-08-10 10:00:00 18.9 5 Nordeste 13 Norte 0 -- -- 69
2019-08-10 09:00:00 16.4 10 Noroeste 15 Noroeste 0 -- -- 79
2019-08-10 08:00:00 14.3 4 Norte 11 Nordeste 0 -- -- 88
2019-08-10 07:00:00 13.6 6 Norte 10 Norte 0 -- -- 90
2019-08-10 06:00:00 13.4 5 Noroeste 9 Noroeste 0 -- -- 90
2019-08-10 05:00:00 14.7 5 Noroeste 24 Nordeste 0 -- -- 82
2019-08-10 04:00:00 14.4 13 Nordeste 23 Nordeste 0 -- -- 85
2019-08-10 03:00:00 15.1 8 Norte 17 Norte 0 -- -- 87
2019-08-10 02:00:00 15.5 8 Nordeste 13 Norte 0 -- -- 87
2019-08-10 01:00:00 16.4 4 Norte 14 Este 0 -- -- 81
2019-08-10 00:00:00 16.2 9 Norte 20 Norte 0 -- -- 85
2019-08-09 23:00:00 16.9 10 Norte 37 Noroeste 0 -- -- 80
2019-08-09 22:00:00 18.5 28 Norte 48 Noroeste 0.2 -- -- 69
2019-08-09 21:00:00 19.2 28 Noroeste 57 Noroeste 0.2 -- -- 85
2019-08-09 20:00:00 24 21 Noroeste 38 Noroeste 0 -- -- 66
2019-08-09 19:00:00 24.7 23 Noroeste 53 Noroeste 0 -- -- 60
2019-08-09 18:00:00 29.2 30 Oeste 48 Oeste 0 -- -- 42
2019-08-09 17:00:00 30.5 24 Oeste 43 Oeste 0 -- -- 40
2019-08-09 16:00:00 31.3 27 Oeste 40 Oeste 0 -- -- 37
2019-08-09 15:00:00 29.6 25 Oeste 43 Oeste 0 -- -- 40
2019-08-09 14:00:00 29 26 Oeste 44 Oeste 0 -- -- 40
2019-08-09 13:00:00 28.4 23 Oeste 46 Oeste 0 -- -- 40
2019-08-09 12:00:00 27.3 28 Oeste 44 Oeste 0 -- -- 40
2019-08-09 11:00:00 25.3 23 Oeste 33 Oeste 0 -- -- 46
2019-08-09 10:00:00 24 21 Oeste 35 Oeste 0 -- -- 50
2019-08-09 09:00:00 22.5 10 Sur 12 Sur 0 -- -- 54
2019-08-09 08:00:00 19.2 2 Sudeste 10 Noroeste 0 -- -- 62
2019-08-09 07:00:00 17.4 2 Sur 6 Sur 0 -- -- 69
2019-08-09 06:00:00 19 7 Sur 10 Sur 0 -- -- 62
2019-08-09 05:00:00 18.3 4 Sur 6 Sudeste 0 -- -- 60
2019-08-09 04:00:00 19.8 0 Calma 6 Sur 0 -- -- 56
2019-08-09 03:00:00 21.8 3 Oeste 16 Noroeste 0 -- -- 51
2019-08-09 02:00:00 23.7 10 Noroeste 23 Noroeste 0 -- -- 47
2019-08-09 01:00:00 23.7 9 Oeste 26 Oeste 0 -- -- 43
2019-08-09 00:00:00 25.5 19 Oeste 28 Sudoeste 0 -- -- 39
2019-08-08 23:00:00 25.2 15 Sudoeste 23 Sudoeste 0 -- -- 40
2019-08-08 22:00:00 26.7 19 Sudoeste 37 Sudoeste 0 -- -- 40
2019-08-08 21:00:00 28.1 24 Oeste 38 Oeste 0 -- -- 39
2019-08-08 20:00:00 29.8 25 Oeste 44 Sudoeste 0 -- -- 37
2019-08-08 19:00:00 30.6 23 Sudoeste 39 Oeste 0 -- -- 35
2019-08-08 18:00:00 30.1 22 Oeste 40 Oeste 0 -- -- 34
2019-08-08 17:00:00 31.3 14 Oeste 41 Sudoeste 0 -- -- 33
2019-08-08 16:00:00 30.2 18 Oeste 32 Oeste 0 -- -- 36
2019-08-08 15:00:00 29.3 20 Sudoeste 32 Noroeste 0 -- -- 36
2019-08-08 14:00:00 28.1 18 Oeste 31 Oeste 0 -- -- 39
2019-08-08 13:00:00 26.8 21 Oeste 44 Sudoeste 0 -- -- 42
2019-08-08 12:00:00 25.2 16 Oeste 30 Noroeste 0 -- -- 46
2019-08-08 11:00:00 23.6 17 Noroeste 29 Noroeste 0 -- -- 49
2019-08-08 10:00:00 21.4 10 Noroeste 28 Oeste 0 -- -- 56
2019-08-08 09:00:00 19.7 14 Noroeste 22 Noroeste 0 -- -- 58
2019-08-08 08:00:00 17.3 9 Norte 19 Noroeste 0 -- -- 66
2019-08-08 07:00:00 14.6 2 Sudoeste 8 Norte 0 -- -- 74
2019-08-08 06:00:00 15.8 6 Norte 10 Noroeste 0 -- -- 70
2019-08-08 05:00:00 16 4 Norte 9 Noroeste 0 -- -- 67
2019-08-08 04:00:00 16.1 3 Sudoeste 9 Noroeste 0 -- -- 66
2019-08-08 03:00:00 16.9 4 Oeste 10 Norte 0 -- -- 63
2019-08-08 02:00:00 17.4 6 Norte 12 Norte 0 -- -- 61
2019-08-08 01:00:00 18.9 9 Noroeste 14 Noroeste 0 -- -- 56
2019-08-08 00:00:00 19.2 11 Noroeste 15 Noroeste 0 -- -- 56
2019-08-07 23:00:00 19.6 10 Noroeste 15 Noroeste 0 -- -- 55
2019-08-07 22:00:00 21.2 10 Noroeste 19 Oeste 0 -- -- 50
2019-08-07 21:00:00 22.2 15 Oeste 37 Oeste 0 -- -- 47
2019-08-07 20:00:00 22.9 26 Oeste 50 Oeste 0 -- -- 44
2019-08-07 19:00:00 24.1 34 Oeste 51 Oeste 0 -- -- 41
2019-08-07 18:00:00 24.3 17 Oeste 35 Oeste 0 -- -- 40
2019-08-07 17:00:00 24.3 15 Oeste 30 Oeste 0 -- -- 49
2019-08-07 16:00:00 21.8 22 Oeste 30 Oeste 0.2 -- -- 67
2019-08-07 15:00:00 25.8 14 Oeste 28 Oeste 0 -- -- 38
2019-08-07 14:00:00 26.7 19 Noroeste 32 Oeste 0 -- -- 37
2019-08-07 13:00:00 27.5 14 Noroeste 28 Noroeste 0 -- -- 36
2019-08-07 12:00:00 25.9 11 Noroeste 19 Noroeste 0 -- -- 42
2019-08-07 11:00:00 25.6 10 Noroeste 25 Noroeste 0 -- -- 43
2019-08-07 10:00:00 23.7 6 Oeste 13 Noroeste 0 -- -- 55
2019-08-07 09:00:00 20.3 9 Noroeste 12 Noroeste 0 -- -- 70
2019-08-07 08:00:00 17.1 6 Norte 13 Nordeste 0 -- -- 81
2019-08-07 07:00:00 17.3 14 Nordeste 17 Nordeste 0 -- -- 79
2019-08-07 06:00:00 18.2 10 Norte 15 Norte 0 -- -- 75
2019-08-07 05:00:00 18.5 8 Norte 21 Norte 0 -- -- 75
2019-08-07 04:00:00 18.9 18 Norte 25 Nordeste 0 -- -- 75
2019-08-07 03:00:00 19.4 17 Nordeste 27 Nordeste 0 -- -- 74
2019-08-07 02:00:00 20 14 Nordeste 28 Nordeste 0 -- -- 70
2019-08-07 01:00:00 21.1 12 Nordeste 17 Nordeste 0 -- -- 66
2019-08-07 00:00:00 21.3 9 Nordeste 12 Nordeste 0 -- -- 46
2019-08-06 23:00:00 24.7 0 Calma 9 Sudeste 0 -- -- 23
2019-08-06 22:00:00 26.1 2 Sudoeste 18 Sudoeste 0 -- -- 21
2019-08-06 21:00:00 29.2 17 Oeste 30 Sudoeste 0 -- -- 18
2019-08-06 20:00:00 30.6 15 Oeste 36 Sudoeste 0 -- -- 19
2019-08-06 19:00:00 32.2 18 Oeste 31 Oeste 0 -- -- 19
2019-08-06 18:00:00 32 18 Oeste 40 Sudoeste 0 -- -- 20
2019-08-06 17:00:00 33.4 20 Sudoeste 37 Sudoeste 0 -- -- 19
2019-08-06 16:00:00 33 18 Sudoeste 32 Sudoeste 0 -- -- 19
2019-08-06 15:00:00 31.2 13 Noroeste 30 Oeste 0 -- -- 20
2019-08-06 14:00:00 30.8 11 Oeste 32 Oeste 0 -- -- 25
2019-08-06 13:00:00 29.3 15 Oeste 28 Oeste 0 -- -- 30
2019-08-06 12:00:00 29.1 6 Sudeste 13 Nordeste 0 -- -- 36
2019-08-06 11:00:00 25.4 9 Noroeste 19 Norte 0 -- -- 45
2019-08-06 10:00:00 23.4 10 Noroeste 17 Noroeste 0 -- -- 50
2019-08-06 09:00:00 21.7 4 Norte 8 Nordeste 0 -- -- 57
2019-08-06 08:00:00 18.3 2 Nordeste 9 Norte 0 -- -- 70
2019-08-06 07:00:00 15.8 8 Norte 12 Nordeste 0 -- -- 79
2019-08-06 06:00:00 17.6 0 Calma 13 Sudeste 0 -- -- 71
2019-08-06 05:00:00 19 13 Sudeste 20 Nordeste 0 -- -- 65
2019-08-06 04:00:00 19 8 Nordeste 15 Nordeste 0 -- -- 71
2019-08-06 03:00:00 19.5 8 Nordeste 13 Nordeste 0 -- -- 60
2019-08-06 02:00:00 22 0 Calma 16 Sur 0 -- -- 51
2019-08-06 01:00:00 24 8 Sur 22 Sur 0 -- -- 45
2019-08-06 00:00:00 25.1 10 Sudeste 17 Sudeste 0 -- -- 39
2019-08-05 23:00:00 25.8 8 Sur 17 Sudeste 0 -- -- 38
2019-08-05 22:00:00 27 17 Sur 33 Sudeste 0 -- -- 38
2019-08-05 21:00:00 29.8 9 Sudoeste 25 Sudoeste 0 -- -- 19
2019-08-05 20:00:00 32.6 17 Sudoeste 33 Sudoeste 0 -- -- 16
2019-08-05 19:00:00 33.6 21 Sudoeste 54 Sur 0 -- -- 15
2019-08-05 18:00:00 33.6 26 Sudoeste 44 Oeste 0 -- -- 15
2019-08-05 17:00:00 33.9 21 Sudoeste 42 Sudoeste 0 -- -- 16
2019-08-05 16:00:00 33.6 18 Oeste 42 Oeste 0 -- -- 18
2019-08-05 15:00:00 32.6 23 Sudoeste 53 Oeste 0 -- -- 19
2019-08-05 14:00:00 31.6 13 Sudoeste 29 Sudoeste 0 -- -- 25
2019-08-05 13:00:00 30 12 Sudoeste 25 Sudoeste 0 -- -- 32
2019-08-05 12:00:00 29.3 12 Sudoeste 21 Sudoeste 0 -- -- 35
2019-08-05 11:00:00 27.2 8 Sudoeste 15 Sur 0 -- -- 40
2019-08-05 10:00:00 24.2 10 Sur 13 Sur 0 -- -- 53
2019-08-05 09:00:00 20.8 3 Norte 9 Norte 0 -- -- 69
2019-08-05 08:00:00 16.1 8 Norte 11 Norte 0 -- -- 85
2019-08-05 07:00:00 15.3 8 Norte 13 Norte 0 -- -- 87
2019-08-05 06:00:00 17 2 Sudeste 17 Este 0 -- -- 80
2019-08-05 05:00:00 18.7 14 Este 19 Sudeste 0 -- -- 73
2019-08-05 04:00:00 19.8 13 Este 14 Este 0 -- -- 68
2019-08-05 03:00:00 17.9 10 Norte 12 Norte 0 -- -- 79
2019-08-05 02:00:00 20 7 Nordeste 14 Nordeste 0 -- -- 67
2019-08-05 01:00:00 22.4 2 Sudeste 12 Sur 0 -- -- 50
2019-08-05 00:00:00 23.4 8 Sudeste 22 Nordeste 0 -- -- 44
2019-08-04 23:00:00 23.7 22 Este 29 Este 0 -- -- 56
2019-08-04 22:00:00 26.5 24 Nordeste 33 Nordeste 0 -- -- 41
2019-08-04 21:00:00 29.4 10 Sudoeste 27 Sudoeste 0 -- -- 20
2019-08-04 20:00:00 32.4 15 Sudoeste 30 Sudoeste 0 -- -- 17
2019-08-04 19:00:00 33.1 18 Sudoeste 35 Sudoeste 0 -- -- 16
2019-08-04 18:00:00 33.3 21 Sudoeste 37 Sudoeste 0 -- -- 15
2019-08-04 17:00:00 33 23 Oeste 40 Sudoeste 0 -- -- 16
2019-08-04 16:00:00 32.9 24 Oeste 41 Oeste 0 -- -- 16
2019-08-04 15:00:00 32.6 24 Oeste 46 Sudoeste 0 -- -- 18
2019-08-04 14:00:00 31.2 15 Sudoeste 28 Oeste 0 -- -- 26
2019-08-04 13:00:00 30.7 9 Oeste 22 Oeste 0 -- -- 27
2019-08-04 12:00:00 29.1 9 Sudoeste 15 Sudoeste 0 -- -- 32
2019-08-04 11:00:00 27.7 8 Sudoeste 14 Oeste 0 -- -- 34
2019-08-04 10:00:00 25.8 7 Sudoeste 12 Sur 0 -- -- 47
2019-08-04 09:00:00 24 0 Calma 5 Norte 0 -- -- 54
2019-08-04 08:00:00 18 2 Sudeste 11 Norte 0 -- -- 74
2019-08-04 07:00:00 17 6 Nordeste 15 Este 0 -- -- 78
2019-08-04 06:00:00 18.5 13 Este 16 Este 0 -- -- 70
2019-08-04 05:00:00 20 5 Este 13 Sudeste 0 -- -- 62
2019-08-04 04:00:00 21.4 8 Sudeste 15 Este 0 -- -- 58
2019-08-04 03:00:00 19.3 11 Nordeste 17 Nordeste 0 -- -- 68
2019-08-04 02:00:00 19.7 14 Nordeste 19 Nordeste 0 -- -- 64
2019-08-04 01:00:00 20.8 10 Norte 14 Nordeste 0 -- -- 53
2019-08-04 00:00:00 21.1 11 Norte 14 Sudeste 0 -- -- 48
2019-08-03 23:00:00 23.9 10 Este 20 Este 0 -- -- 39
2019-08-03 22:00:00 26.3 5 Norte 13 Norte 0 -- -- 31
2019-08-03 21:00:00 29.6 12 Oeste 24 Sudoeste 0 -- -- 16
2019-08-03 20:00:00 32.2 21 Sudoeste 37 Sudoeste 0 -- -- 15
2019-08-03 19:00:00 33.3 29 Sudoeste 39 Sudoeste 0 -- -- 15
2019-08-03 18:00:00 33.6 20 Sudoeste 41 Sudoeste 0 -- -- 16
2019-08-03 17:00:00 33.6 23 Sudoeste 48 Sudoeste 0 -- -- 17
2019-08-03 16:00:00 33.4 19 Oeste 56 Sudoeste 0 -- -- 17
2019-08-03 15:00:00 32.2 27 Sudoeste 39 Sudoeste 0 -- -- 25
2019-08-03 14:00:00 31.4 10 Oeste 24 Sur 0 -- -- 28
2019-08-03 13:00:00 29 15 Sur 29 Sudeste 0 -- -- 33
2019-08-03 12:00:00 28.4 15 Sur 26 Sur 0 -- -- 35
2019-08-03 11:00:00 27.1 15 Sur 24 Sur 0 -- -- 36
2019-08-03 10:00:00 26.3 6 Sur 9 Sur 0 -- -- 30
2019-08-03 09:00:00 22.6 0 Calma 7 Este 0 -- -- 42
2019-08-03 08:00:00 17.2 2 Este 6 Este 0 -- -- 54
2019-08-03 07:00:00 15 4 Nordeste 8 Norte 0 -- -- 60
2019-08-03 06:00:00 16.2 5 Este 14 Sudeste 0 -- -- 54
2019-08-03 05:00:00 16.9 9 Este 12 Sudeste 0 -- -- 57
2019-08-03 04:00:00 17.3 3 Sudeste 11 Sudeste 0 -- -- 55
2019-08-03 03:00:00 18.1 6 Norte 15 Nordeste 0 -- -- 52
2019-08-03 02:00:00 17.9 4 Norte 12 Nordeste 0 -- -- 56
2019-08-03 01:00:00 19.3 9 Nordeste 28 Nordeste 0 -- -- 50
2019-08-03 00:00:00 20 14 Nordeste 32 Nordeste 0 -- -- 49
2019-08-02 23:00:00 21.5 19 Nordeste 35 Nordeste 0 -- -- 47
2019-08-02 22:00:00 23.1 23 Nordeste 30 Nordeste 0 -- -- 44
2019-08-02 21:00:00 25.2 24 Nordeste 34 Nordeste 0 -- -- 43
2019-08-02 20:00:00 27.6 24 Nordeste 36 Este 0 -- -- 37
2019-08-02 19:00:00 29.4 21 Este 40 Este 0 -- -- 34
2019-08-02 18:00:00 31.3 13 Noroeste 28 Noroeste 0 -- -- 26
2019-08-02 17:00:00 31.1 14 Norte 28 Norte 0 -- -- 26
2019-08-02 16:00:00 31.6 7 Oeste 25 Noroeste 0 -- -- 26
2019-08-02 15:00:00 29.7 14 Noroeste 25 Norte 0 -- -- 28
2019-08-02 14:00:00 29.2 8 Noroeste 17 Sudoeste 0 -- -- 29
2019-08-02 13:00:00 27.3 7 Noroeste 17 Sudoeste 0 -- -- 41
2019-08-02 12:00:00 27.1 7 Sudoeste 14 Sur 0 -- -- 49
2019-08-02 11:00:00 25.2 6 Sudoeste 12 Sudoeste 0 -- -- 55
2019-08-02 10:00:00 22.4 3 Noroeste 8 Noroeste 0 -- -- 67
2019-08-02 09:00:00 19.8 2 Nordeste 4 Nordeste 0 -- -- 76
2019-08-02 08:00:00 15.6 3 Nordeste 5 Nordeste 0 -- -- 90
2019-08-02 07:00:00 14 3 Sudeste 6 Sudeste 0 -- -- 94
2019-08-02 06:00:00 14.3 3 Sur 13 Nordeste 0 -- -- 93
2019-08-02 05:00:00 14.7 13 Nordeste 14 Nordeste 0 -- -- 94
2019-08-02 04:00:00 15.6 12 Nordeste 15 Nordeste 0 -- -- 92
2019-08-02 03:00:00 15.7 10 Nordeste 17 Nordeste 0 -- -- 90
2019-08-02 02:00:00 16.6 9 Norte 30 Nordeste 0 -- -- 89
2019-08-02 01:00:00 17.4 26 Nordeste 31 Nordeste 0 -- -- 86
2019-08-02 00:00:00 18.8 23 Nordeste 28 Nordeste 0 -- -- 80
2019-08-01 23:00:00 20.3 18 Nordeste 34 Nordeste 0 -- -- 75
2019-08-01 22:00:00 21.5 30 Nordeste 40 Nordeste 0 -- -- 70
2019-08-01 21:00:00 23.4 18 Nordeste 50 Nordeste 0 -- -- 58
2019-08-01 20:00:00 24.9 27 Este 66 Nordeste 0 -- -- 51
2019-08-01 19:00:00 28.8 15 Oeste 31 Noroeste 0 -- -- 26
2019-08-01 18:00:00 29.3 23 Oeste 32 Oeste 0 -- -- 29
2019-08-01 17:00:00 29.9 15 Noroeste 36 Norte 0 -- -- 35
2019-08-01 16:00:00 26.3 20 Noroeste 48 Noroeste 0 -- -- 47
2019-08-01 15:00:00 28.7 16 Sudoeste 29 Sur 0 -- -- 35
2019-08-01 14:00:00 27.6 16 Sur 26 Sudoeste 0 -- -- 41
2019-08-01 13:00:00 26.2 8 Oeste 27 Sudoeste 0 -- -- 46
2019-08-01 12:00:00 25 10 Sudoeste 28 Sudoeste 0 -- -- 48
2019-08-01 11:00:00 23.7 10 Sur 21 Sur 0 -- -- 53
2019-08-01 10:00:00 20.5 11 Sudeste 17 Sudeste 0 -- -- 71
2019-08-01 09:00:00 18.9 11 Sudeste 17 Sudeste 0 -- -- 81
2019-08-01 08:00:00 17.4 9 Sudeste 17 Sudeste 0 -- -- 87
2019-08-01 07:00:00 16.7 9 Sur 16 Sur 0 -- -- 89
2019-08-01 06:00:00 17.2 9 Este 19 Sudeste 0 -- -- 87
2019-08-01 05:00:00 18.2 16 Sudeste 27 Sudeste 0 -- -- 81
2019-08-01 04:00:00 19.1 13 Sudeste 26 Sur 0 -- -- 76
2019-08-01 03:00:00 19.9 7 Sur 41 Sudeste 0 -- -- 71
2019-08-01 02:00:00 20.3 27 Sudeste 35 Sudeste 0 -- -- 70
2019-08-01 01:00:00 20.7 8 Norte 36 Sudeste 0 -- -- 65
2019-08-01 00:00:00 21.5 20 Sudeste 36 Sudeste 0 -- -- 58
2019-07-31 23:00:00 22 22 Sudeste 34 Sudeste 0 -- -- 49
2019-07-31 22:00:00 22.3 12 Sur 34 Sudeste 0 -- -- 45
2019-07-31 21:00:00 23.4 18 Sudeste 39 Sudeste 0 -- -- 41
2019-07-31 20:00:00 24.9 27 Sudeste 40 Sur 0 -- -- 38
2019-07-31 19:00:00 26.4 27 Sudeste 38 Sudeste 0 -- -- 36
2019-07-31 18:00:00 27.7 25 Sur 41 Sudeste 0 -- -- 34
2019-07-31 17:00:00 28.6 11 Sur 31 Sur 0 -- -- 33
2019-07-31 16:00:00 27.9 12 Sudeste 27 Sur 0 -- -- 34
2019-07-31 15:00:00 26.7 10 Sudeste 27 Sudoeste 0 -- -- 36
2019-07-31 14:00:00 25.4 11 Sur 35 Sudoeste 0 -- -- 36
2019-07-31 13:00:00 23.2 26 Sur 35 Sur 0 -- -- 41
2019-07-31 12:00:00 22.7 10 Sur 23 Sur 0 -- -- 40
2019-07-31 11:00:00 19.6 10 Sudeste 19 Sudeste 0 -- -- 44
2019-07-31 10:00:00 17.6 5 Este 11 Este 0 -- -- 51
2019-07-31 09:00:00 13.4 3 Sur 6 Sudeste 0 -- -- 65
2019-07-31 08:00:00 10.7 6 Sur 8 Sur 0 -- -- 77
2019-07-31 07:00:00 10.2 6 Nordeste 12 Nordeste 0 -- -- 78
2019-07-31 06:00:00 10.5 4 Norte 15 Nordeste 0 -- -- 77
2019-07-31 05:00:00 9.9 12 Nordeste 18 Nordeste 0 -- -- 78
2019-07-31 04:00:00 10.1 12 Nordeste 22 Nordeste 0 -- -- 77
2019-07-31 03:00:00 10.8 17 Nordeste 33 Nordeste 0 -- -- 74
2019-07-31 02:00:00 11.5 30 Nordeste 38 Nordeste 0 -- -- 72
2019-07-31 01:00:00 11.8 22 Nordeste 30 Nordeste 0 -- -- 73
2019-07-31 00:00:00 12.7 17 Nordeste 42 Nordeste 0 -- -- 70
2019-07-30 23:00:00 13.3 31 Nordeste 48 Nordeste 0 -- -- 68
2019-07-30 22:00:00 14.4 35 Nordeste 49 Nordeste 0 -- -- 64
2019-07-30 21:00:00 16.8 31 Nordeste 48 Nordeste 0 -- -- 54
2019-07-30 20:00:00 20.3 35 Nordeste 48 Nordeste 0 -- -- 43
2019-07-30 19:00:00 22.2 33 Nordeste 44 Nordeste 0 -- -- 38
2019-07-30 18:00:00 23.4 27 Nordeste 39 Nordeste 0 -- -- 36
2019-07-30 17:00:00 25.8 5 Este 24 Nordeste 0 -- -- 29
2019-07-30 16:00:00 24.1 11 Nordeste 28 Nordeste 0 -- -- 32
2019-07-30 15:00:00 23 8 Este 22 Nordeste 0 -- -- 36
2019-07-30 14:00:00 21.2 12 Norte 28 Norte 0 -- -- 40
2019-07-30 13:00:00 20.3 10 Nordeste 27 Nordeste 0 -- -- 44
2019-07-30 12:00:00 18.3 16 Nordeste 28 Nordeste 0 -- -- 51
2019-07-30 11:00:00 17.3 15 Norte 29 Nordeste 0 -- -- 56
2019-07-30 10:00:00 15.5 24 Nordeste 31 Nordeste 0 -- -- 65
2019-07-30 09:00:00 14.2 23 Nordeste 30 Nordeste 0 -- -- 74
2019-07-30 08:00:00 13 8 Norte 13 Norte 0 -- -- 84
2019-07-30 07:00:00 11.6 8 Norte 17 Norte 0 -- -- 89
2019-07-30 06:00:00 11.8 9 Norte 25 Norte 0 -- -- 87
2019-07-30 05:00:00 12.6 15 Norte 22 Norte 0 -- -- 86
2019-07-30 04:00:00 12.7 13 Norte 20 Norte 0 -- -- 87
2019-07-30 03:00:00 13.1 14 Norte 28 Norte 0 -- -- 88
2019-07-30 02:00:00 13.9 21 Nordeste 27 Nordeste 0 -- -- 84
2019-07-30 01:00:00 15.3 18 Nordeste 22 Nordeste 0 -- -- 79
2019-07-30 00:00:00 17 15 Nordeste 21 Norte 0 -- -- 73
2019-07-29 23:00:00 19.3 15 Nordeste 24 Norte 0 -- -- 62
2019-07-29 22:00:00 22.7 15 Norte 30 Noroeste 0 -- -- 40
2019-07-29 21:00:00 26 20 Noroeste 31 Noroeste 0 -- -- 31
2019-07-29 20:00:00 27.6 17 Noroeste 30 Noroeste 0 -- -- 28
2019-07-29 19:00:00 29.6 19 Noroeste 35 Noroeste 0 -- -- 27
2019-07-29 18:00:00 31.1 11 Oeste 32 Oeste 0 -- -- 25
2019-07-29 17:00:00 29.9 19 Sudoeste 38 Sudoeste 0 -- -- 24
2019-07-29 16:00:00 30 21 Oeste 62 Oeste 0 -- -- 23
2019-07-29 15:00:00 28.7 17 Oeste 35 Sudoeste 0 -- -- 27
2019-07-29 14:00:00 27.6 13 Oeste 29 Sudoeste 0 -- -- 27
2019-07-29 13:00:00 26 9 Noroeste 26 Oeste 0 -- -- 29
2019-07-29 12:00:00 24.5 8 Noroeste 20 Noroeste 0 -- -- 34
2019-07-29 11:00:00 22.8 6 Oeste 14 Noroeste 0 -- -- 40
2019-07-29 10:00:00 21.7 3 Oeste 8 Noroeste 0 -- -- 47
2019-07-29 09:00:00 17.5 3 Nordeste 10 Nordeste 0 -- -- 61
2019-07-29 08:00:00 12.5 7 Nordeste 9 Nordeste 0 -- -- 79
2019-07-29 07:00:00 10.8 5 Nordeste 15 Nordeste 0 -- -- 84
2019-07-29 06:00:00 11.1 10 Nordeste 15 Nordeste 0 -- -- 82
2019-07-29 05:00:00 11.2 8 Nordeste 11 Nordeste 0 -- -- 79
2019-07-29 04:00:00 12.4 3 Norte 4 Norte 0 -- -- 72
2019-07-29 03:00:00 12.9 0 Calma 4 Sudeste 0 -- -- 70
2019-07-29 02:00:00 14.6 4 Sudeste 15 Sudeste 0 -- -- 65
2019-07-29 01:00:00 14.9 9 Sudeste 12 Este 0 -- -- 64
2019-07-29 00:00:00 15.2 4 Sudeste 11 Norte 0 -- -- 62
2019-07-28 23:00:00 15.6 5 Este 18 Nordeste 0 -- -- 62
2019-07-28 22:00:00 17.5 18 Nordeste 28 Nordeste 0 -- -- 56
2019-07-28 21:00:00 21.4 22 Nordeste 30 Nordeste 0 -- -- 44
2019-07-28 20:00:00 25.8 15 Noroeste 33 Noroeste 0 -- -- 20
2019-07-28 19:00:00 26.1 14 Noroeste 31 Oeste 0 -- -- 19
2019-07-28 18:00:00 26.1 12 Noroeste 27 Noroeste 0 -- -- 22
2019-07-28 17:00:00 24.9 8 Noroeste 28 Noroeste 0 -- -- 31
2019-07-28 16:00:00 23.2 13 Norte 26 Norte 0 -- -- 36
2019-07-28 15:00:00 21.3 13 Norte 25 Norte 0 -- -- 41
2019-07-28 14:00:00 20 12 Norte 27 Norte 0 -- -- 43
2019-07-28 13:00:00 18.8 12 Nordeste 23 Norte 0 -- -- 50
2019-07-28 12:00:00 17.1 13 Norte 27 Norte 0 -- -- 56
2019-07-28 11:00:00 15.1 19 Norte 33 Norte 0 -- -- 64
2019-07-28 10:00:00 13.8 18 Norte 24 Norte 0 -- -- 70
2019-07-28 09:00:00 13.2 13 Norte 25 Norte 0 -- -- 73
2019-07-28 08:00:00 10.3 18 Norte 23 Norte 0 -- -- 86
2019-07-28 07:00:00 8.5 14 Norte 18 Nordeste 0 -- -- 91
2019-07-28 06:00:00 8.5 6 Norte 12 Noroeste 0 -- -- 89
2019-07-28 05:00:00 9.5 0 Calma 11 Norte 0 -- -- 88
2019-07-28 04:00:00 9.8 0 Calma 29 Norte 0 -- -- 86
2019-07-28 03:00:00 10.9 17 Norte 26 Norte 0 -- -- 81
2019-07-28 02:00:00 10.9 13 Norte 28 Norte 0 -- -- 83
2019-07-28 01:00:00 11.8 14 Norte 27 Norte 0 -- -- 81
2019-07-28 00:00:00 12.6 19 Norte 28 Norte 0 -- -- 77
2019-07-27 23:00:00 12.9 13 Norte 28 Norte 0 -- -- 76
2019-07-26 12:00:00 -- -- -- -- -- -- -- -- --
2019-07-26 11:00:00 23.2 12 Sudeste 20 Este 0 -- -- 61
2019-07-26 10:00:00 19.1 15 Este 44 Este 0.2 -- -- 80
2019-07-26 09:00:00 20.1 8 Nordeste 25 Nordeste 0 -- -- 71
2019-07-26 08:00:00 19 24 Nordeste 41 Este 0 -- -- 76
2019-07-26 07:00:00 19.1 14 Norte 29 Nordeste 0 -- -- 75
2019-07-26 06:00:00 18.7 20 Nordeste 27 Norte 0 -- -- 77
2019-07-26 05:00:00 19.2 15 Nordeste 24 Nordeste 0 -- -- 74
2019-07-26 04:00:00 19.2 15 Nordeste 21 Nordeste 0 -- -- 70
2019-07-26 03:00:00 19.5 11 Nordeste 22 Nordeste 0 -- -- 64
2019-07-26 02:00:00 20.9 12 Sudeste 15 Sudeste 0 -- -- 57
2019-07-26 01:00:00 22.3 3 Sudeste 31 Sudeste 0 -- -- 53
2019-07-26 00:00:00 23.8 18 Sudeste 61 Sur 1 -- -- 48